Time;durP1;ratioP1;P1;durP2;ratioP2;P2;SDS_P1;SDS_P2;PMS_P1;PMS_P2;Temp;Humidity;BMP_temperature;BMP_pressure;BME280_temperature;BME280_humidity;BME280_pressure;Samples;Min_cycle;Max_cycle;Signal;HPM_P1;HPM_P2
2023/01/15 00:01:49;;;;;;;34.08;20.30;;;;;;;;;;6241970;28;20053;-77
2023/01/15 00:04:51;;;;;;;34.10;20.05;;;;;;;;;;6244296;28;20045;-74
2023/01/15 00:07:54;;;;;;;29.10;18.73;;;;;;;;;;6247049;28;20124;-77
2023/01/15 00:10:56;;;;;;;35.17;19.25;;;;;;;;;;6246379;28;20068;-77
2023/01/15 00:13:58;;;;;;;30.98;21.02;;;;;;;;;;6241827;28;20057;-74
2023/01/15 00:16:59;;;;;;;28.20;19.98;;;;;;;;;;6247078;28;20053;-77
2023/01/15 00:20:01;;;;;;;30.58;20.10;;;;;;;;;;6241772;28;20123;-78
2023/01/15 00:23:04;;;;;;;29.38;20.92;;;;;;;;;;6241679;28;20045;-77
2023/01/15 00:29:26;;;;;;;28.75;19.60;;;;;;;;;;6244753;28;20065;-77
2023/01/15 00:32:28;;;;;;;31.88;20.85;;;;;;;;;;6244215;28;20061;-78
2023/01/15 00:35:30;;;;;;;32.78;22.23;;;;;;;;;;6242386;28;20081;-78
2023/01/15 00:38:33;;;;;;;34.75;23.20;;;;;;;;;;6244687;28;20045;-77
2023/01/15 00:41:35;;;;;;;33.05;21.65;;;;;;;;;;6246598;28;20053;-69
2023/01/15 00:44:36;;;;;;;35.05;24.42;;;;;;;;;;6245304;28;20045;-67
2023/01/15 00:47:38;;;;;;;43.05;24.33;;;;;;;;;;6244408;28;20072;-77
2023/01/15 00:50:40;;;;;;;37.83;24.88;;;;;;;;;;6243983;28;20061;-77
2023/01/15 00:53:43;;;;;;;35.35;24.48;;;;;;;;;;6242170;28;20142;-76
2023/01/15 00:56:45;;;;;;;37.70;23.63;;;;;;;;;;6245916;28;20061;-76
2023/01/15 00:59:47;;;;;;;38.67;24.98;;;;;;;;;;6244089;28;20120;-76
2023/01/15 01:02:48;;;;;;;33.85;22.50;;;;;;;;;;6245212;28;20140;-76
2023/01/15 01:05:51;;;;;;;38.25;25.17;;;;;;;;;;6248371;28;20110;-77
2023/01/15 01:08:54;;;;;;;42.08;27.38;;;;;;;;;;6248524;28;20578;-71
2023/01/15 01:11:56;;;;;;;47.30;31.23;;;;;;;;;;6247678;28;20096;-77
2023/01/15 01:14:57;;;;;;;51.97;33.42;;;;;;;;;;6246157;28;20045;-76
2023/01/15 01:17:59;;;;;;;52.17;33.22;;;;;;;;;;6247885;28;20273;-73
2023/01/15 01:21:04;;;;;;;48.28;32.17;;;;;;;;;;6245745;28;20056;-78
2023/01/15 01:24:08;;;;;;;142.18;69.82;;;;;;;;;;6252004;28;20298;-71
2023/01/15 01:27:10;;;;;;;58.30;37.50;;;;;;;;;;6253378;28;20054;-74
2023/01/15 01:30:12;;;;;;;86.30;49.97;;;;;;;;;;6257160;28;20067;-71
2023/01/15 01:33:14;;;;;;;49.65;33.03;;;;;;;;;;6255940;28;20056;-78
2023/01/15 01:36:16;;;;;;;62.25;38.53;;;;;;;;;;6253689;28;20140;-77
2023/01/15 01:39:20;;;;;;;86.85;46.25;;;;;;;;;;6261316;28;20065;-75
2023/01/15 01:42:21;;;;;;;63.22;36.13;;;;;;;;;;6253876;28;20049;-75
2023/01/15 01:45:26;;;;;;;51.15;32.60;;;;;;;;;;6248748;28;20053;-74
2023/01/15 01:48:32;;;;;;;51.83;33.30;;;;;;;;;;6246114;28;20068;-75
2023/01/15 01:51:39;;;;;;;55.10;34.83;;;;;;;;;;6245799;28;20314;-76
2023/01/15 01:54:45;;;;;;;52.58;34.35;;;;;;;;;;6246196;28;20068;-75
2023/01/15 01:57:47;;;;;;;56.15;35.15;;;;;;;;;;6247678;28;20112;-69
2023/01/15 02:00:50;;;;;;;52.90;33.97;;;;;;;;;;6249002;28;20086;-75
2023/01/15 02:03:53;;;;;;;59.60;36.13;;;;;;;;;;6245535;28;20208;-70
2023/01/15 02:06:55;;;;;;;56.53;35.50;;;;;;;;;;6244423;28;20052;-72
2023/01/15 02:09:58;;;;;;;52.17;34.45;;;;;;;;;;6246225;28;20049;-76
2023/01/15 02:13:04;;;;;;;51.00;34.17;;;;;;;;;;6245386;28;20318;-73
2023/01/15 02:16:11;;;;;;;52.90;35.20;;;;;;;;;;6246565;28;20065;-74
2023/01/15 02:19:22;;;;;;;55.45;35.78;;;;;;;;;;6244588;28;20073;-77
2023/01/15 02:22:34;;;;;;;56.90;35.35;;;;;;;;;;6246925;28;20053;-70
2023/01/15 02:25:51;;;;;;;49.97;33.60;;;;;;;;;;6247656;28;20061;-76
2023/01/15 02:28:57;;;;;;;49.30;32.92;;;;;;;;;;6245764;28;20037;-75
2023/01/15 02:32:03;;;;;;;52.80;33.28;;;;;;;;;;6243924;28;20064;-75
2023/01/15 02:35:09;;;;;;;46.25;32.55;;;;;;;;;;6245236;28;20219;-74
2023/01/15 02:38:12;;;;;;;49.95;33.30;;;;;;;;;;6245236;28;20127;-75
2023/01/15 02:41:16;;;;;;;53.65;33.42;;;;;;;;;;6245388;28;20057;-72
2023/01/15 02:44:22;;;;;;;54.15;32.92;;;;;;;;;;6244701;28;20056;-73
2023/01/15 02:47:26;;;;;;;46.85;31.98;;;;;;;;;;6243204;28;20053;-75
2023/01/15 02:50:31;;;;;;;51.10;33.35;;;;;;;;;;6246700;28;20288;-75
2023/01/15 02:53:33;;;;;;;49.85;33.78;;;;;;;;;;6242329;28;20243;-76
2023/01/15 02:56:35;;;;;;;47.15;32.50;;;;;;;;;;6245200;28;20061;-74
2023/01/15 02:59:40;;;;;;;51.30;34.28;;;;;;;;;;6247078;28;20064;-73
2023/01/15 03:02:45;;;;;;;55.20;33.17;;;;;;;;;;6244025;28;20050;-75
2023/01/15 03:05:52;;;;;;;50.42;33.05;;;;;;;;;;6245518;28;20045;-68
2023/01/15 03:08:54;;;;;;;50.88;34.10;;;;;;;;;;6245910;28;20194;-68
2023/01/15 03:12:03;;;;;;;54.60;33.60;;;;;;;;;;6242057;28;20059;-75
2023/01/15 03:15:09;;;;;;;48.42;33.15;;;;;;;;;;6244898;28;20275;-76
2023/01/15 03:18:12;;;;;;;53.30;33.85;;;;;;;;;;6245154;28;20402;-76
2023/01/15 03:21:19;;;;;;;50.97;33.65;;;;;;;;;;6243975;28;20052;-76
2023/01/15 03:24:25;;;;;;;49.28;34.42;;;;;;;;;;6241949;28;20053;-75
2023/01/15 03:27:28;;;;;;;47.67;33.55;;;;;;;;;;6245617;28;20152;-76
2023/01/15 03:30:31;;;;;;;49.05;33.05;;;;;;;;;;6244169;28;20105;-76
2023/01/15 03:33:34;;;;;;;53.00;33.70;;;;;;;;;;6245489;28;20080;-75
2023/01/15 03:36:36;;;;;;;50.38;34.40;;;;;;;;;;6242740;28;20053;-73
2023/01/15 03:39:37;;;;;;;53.17;34.60;;;;;;;;;;6242868;28;20041;-73
2023/01/15 03:42:46;;;;;;;52.35;34.78;;;;;;;;;;6244260;28;20052;-73
2023/01/15 03:45:50;;;;;;;53.97;35.90;;;;;;;;;;6244734;28;20045;-68
2023/01/15 03:48:57;;;;;;;63.30;38.00;;;;;;;;;;6244376;28;20050;-70
2023/01/15 03:52:02;;;;;;;56.08;36.13;;;;;;;;;;6243709;28;20333;-76
2023/01/15 03:55:11;;;;;;;54.97;35.97;;;;;;;;;;6246578;28;20056;-73
2023/01/15 03:58:15;;;;;;;54.97;35.97;;;;;;;;;;6243596;28;20049;-74
2023/01/15 04:01:20;;;;;;;53.50;35.88;;;;;;;;;;6245285;28;20056;-74
2023/01/15 04:04:22;;;;;;;57.45;36.20;;;;;;;;;;6243290;28;20065;-76
2023/01/15 04:07:24;;;;;;;57.22;37.03;;;;;;;;;;6243884;28;20061;-76
2023/01/15 04:10:26;;;;;;;52.67;34.20;;;;;;;;;;6244130;28;20053;-68
2023/01/15 04:13:28;;;;;;;54.97;35.63;;;;;;;;;;6245121;28;20241;-75
2023/01/15 04:16:33;;;;;;;54.28;34.97;;;;;;;;;;6244338;28;20095;-75
2023/01/15 04:19:34;;;;;;;52.05;34.78;;;;;;;;;;6246546;28;20052;-75
2023/01/15 04:22:36;;;;;;;52.30;33.88;;;;;;;;;;6246829;28;20299;-72
2023/01/15 04:25:39;;;;;;;54.42;34.47;;;;;;;;;;6240566;28;20054;-74
2023/01/15 04:28:41;;;;;;;51.92;33.70;;;;;;;;;;6242335;28;20046;-75
2023/01/15 04:31:44;;;;;;;55.13;34.35;;;;;;;;;;6244023;28;20317;-76
2023/01/15 04:34:46;;;;;;;54.42;33.90;;;;;;;;;;6247209;28;20060;-75
2023/01/15 04:37:48;;;;;;;51.50;33.58;;;;;;;;;;6248988;28;20049;-75
2023/01/15 04:44:08;;;;;;;54.90;35.42;;;;;;;;;;6248378;28;20049;-73
2023/01/15 04:47:11;;;;;;;53.20;34.17;;;;;;;;;;6250648;28;20061;-75
2023/01/15 04:50:13;;;;;;;56.53;35.65;;;;;;;;;;6248484;28;20122;-76
2023/01/15 04:53:15;;;;;;;55.50;34.47;;;;;;;;;;6247576;28;20099;-76
2023/01/15 04:56:16;;;;;;;57.75;35.83;;;;;;;;;;6249756;28;20054;-74
2023/01/15 04:59:20;;;;;;;56.05;35.47;;;;;;;;;;6249743;28;20053;-76
2023/01/15 05:02:23;;;;;;;54.60;35.53;;;;;;;;;;6246618;28;20109;-75
2023/01/15 05:05:25;;;;;;;52.55;35.63;;;;;;;;;;6249411;28;20204;-75
2023/01/15 05:08:27;;;;;;;58.40;35.30;;;;;;;;;;6247757;28;20057;-77
2023/01/15 05:11:29;;;;;;;53.20;34.28;;;;;;;;;;6247803;28;20103;-76
2023/01/15 05:14:31;;;;;;;53.22;35.45;;;;;;;;;;6245211;28;20058;-72
2023/01/15 05:17:34;;;;;;;56.75;35.60;;;;;;;;;;6247610;28;20103;-76
2023/01/15 05:20:36;;;;;;;54.95;37.13;;;;;;;;;;6246788;28;20060;-75
2023/01/15 05:23:38;;;;;;;60.20;37.22;;;;;;;;;;6247448;28;20226;-73
2023/01/15 05:26:40;;;;;;;53.97;37.03;;;;;;;;;;6247818;28;20121;-69
2023/01/15 05:29:41;;;;;;;54.00;36.38;;;;;;;;;;6249073;28;20061;-76
2023/01/15 05:32:44;;;;;;;52.30;36.20;;;;;;;;;;6247733;28;20087;-76
2023/01/15 05:35:46;;;;;;;52.65;36.05;;;;;;;;;;6247561;28;20057;-76
2023/01/15 05:38:48;;;;;;;54.95;36.13;;;;;;;;;;6247252;28;20254;-75
2023/01/15 05:41:50;;;;;;;49.30;35.72;;;;;;;;;;6247382;28;20056;-76
2023/01/15 05:44:51;;;;;;;52.05;35.33;;;;;;;;;;6246410;28;20341;-69
2023/01/15 05:47:54;;;;;;;52.20;35.35;;;;;;;;;;6251709;28;20057;-75
2023/01/15 05:50:56;;;;;;;54.00;34.92;;;;;;;;;;6247578;28;20296;-75
2023/01/15 05:53:58;;;;;;;48.20;33.72;;;;;;;;;;6247142;28;20265;-68
2023/01/15 05:57:00;;;;;;;51.67;33.83;;;;;;;;;;6246750;28;20058;-75
2023/01/15 06:00:02;;;;;;;47.72;33.22;;;;;;;;;;6246390;28;20053;-75
2023/01/15 06:03:05;;;;;;;49.28;34.20;;;;;;;;;;6248335;28;20110;-72
2023/01/15 06:06:07;;;;;;;48.72;34.58;;;;;;;;;;6246443;28;20059;-75
2023/01/15 06:09:08;;;;;;;49.83;32.80;;;;;;;;;;6247486;28;20046;-74
2023/01/15 06:12:10;;;;;;;50.65;32.10;;;;;;;;;;6244584;28;20100;-71
2023/01/15 06:15:12;;;;;;;46.67;32.42;;;;;;;;;;6243167;28;20057;-76
2023/01/15 06:18:15;;;;;;;50.10;34.08;;;;;;;;;;6249465;28;20377;-75
2023/01/15 06:21:17;;;;;;;52.20;34.97;;;;;;;;;;6247398;28;20049;-69
2023/01/15 06:24:19;;;;;;;52.42;36.42;;;;;;;;;;6244274;28;20103;-77
2023/01/15 06:27:21;;;;;;;55.85;38.28;;;;;;;;;;6246035;28;20057;-71
2023/01/15 06:30:22;;;;;;;61.75;38.38;;;;;;;;;;6249919;28;20049;-73
2023/01/15 06:33:26;;;;;;;61.47;39.92;;;;;;;;;;6244031;28;20053;-73
2023/01/15 06:36:28;;;;;;;61.00;40.47;;;;;;;;;;6246793;28;20053;-72
2023/01/15 06:39:29;;;;;;;70.07;43.38;;;;;;;;;;6247465;28;20057;-73
2023/01/15 06:49:11;;;;;;;74.85;46.03;;;;;;;;;;6245501;28;20132;-72
2023/01/15 06:52:13;;;;;;;70.03;46.45;;;;;;;;;;6243995;28;20053;-73
2023/01/15 06:55:17;;;;;;;73.75;46.25;;;;;;;;;;6244795;28;20113;-74
2023/01/15 06:58:21;;;;;;;74.18;48.60;;;;;;;;;;6244602;28;20054;-74
2023/01/15 07:01:22;;;;;;;75.90;48.65;;;;;;;;;;6245893;28;20060;-71
2023/01/15 07:04:25;;;;;;;79.15;50.10;;;;;;;;;;6245844;28;20060;-73
2023/01/15 07:07:28;;;;;;;73.65;47.90;;;;;;;;;;6245859;28;20107;-74
2023/01/15 07:10:30;;;;;;;77.03;49.40;;;;;;;;;;6245492;28;20473;-73
2023/01/15 07:13:31;;;;;;;76.85;50.20;;;;;;;;;;6245636;28;20333;-74
2023/01/15 07:16:33;;;;;;;75.65;47.80;;;;;;;;;;6243813;28;20233;-73
2023/01/15 07:19:37;;;;;;;71.03;46.78;;;;;;;;;;6246037;28;20333;-73
2023/01/15 07:22:38;;;;;;;71.40;46.33;;;;;;;;;;6243421;28;20111;-68
2023/01/15 07:25:40;;;;;;;73.82;47.47;;;;;;;;;;6242521;28;20060;-74
2023/01/15 07:28:42;;;;;;;69.30;45.10;;;;;;;;;;6248839;28;20055;-74
2023/01/15 07:31:44;;;;;;;72.60;46.90;;;;;;;;;;6245396;28;20057;-74
2023/01/15 07:34:47;;;;;;;68.25;43.65;;;;;;;;;;6244061;28;20344;-70
2023/01/15 07:37:51;;;;;;;65.15;44.65;;;;;;;;;;6245492;28;20057;-73
2023/01/15 07:50:51;;;;;;;73.40;48.38;;;;;;;;;;6244024;28;20333;-74
2023/01/15 07:53:53;;;;;;;77.65;49.97;;;;;;;;;;6244556;28;20348;-75
2023/01/15 07:56:55;;;;;;;74.95;48.08;;;;;;;;;;6245228;28;20045;-74
2023/01/15 07:59:57;;;;;;;74.95;49.70;;;;;;;;;;6243499;28;20065;-74
2023/01/15 08:02:58;;;;;;;76.82;47.45;;;;;;;;;;6244538;28;20444;-75
2023/01/15 08:06:01;;;;;;;75.38;50.10;;;;;;;;;;6241331;28;20053;-73
2023/01/15 08:09:04;;;;;;;73.32;48.08;;;;;;;;;;6240850;28;20046;-70
2023/01/15 08:15:25;;;;;;;82.07;49.40;;;;;;;;;;6245526;28;20297;-71
2023/01/15 08:18:26;;;;;;;76.43;50.08;;;;;;;;;;6246001;28;20317;-74
2023/01/15 08:21:29;;;;;;;83.82;51.22;;;;;;;;;;6245510;28;20069;-76
2023/01/15 08:24:31;;;;;;;86.72;52.15;;;;;;;;;;6246600;28;20469;-77
2023/01/15 08:27:33;;;;;;;84.03;53.10;;;;;;;;;;6246277;28;20710;-73
2023/01/15 08:30:35;;;;;;;84.35;53.45;;;;;;;;;;6247979;28;20108;-74
2023/01/15 08:33:36;;;;;;;81.63;52.33;;;;;;;;;;6245642;28;20057;-75
2023/01/15 08:36:40;;;;;;;80.22;51.00;;;;;;;;;;6246886;28;20041;-75
2023/01/15 08:39:41;;;;;;;81.68;52.65;;;;;;;;;;6247323;28;20050;-76
2023/01/15 08:42:43;;;;;;;83.75;51.85;;;;;;;;;;6248989;28;20045;-77
2023/01/15 08:45:45;;;;;;;82.57;51.40;;;;;;;;;;6243434;28;20569;-74
2023/01/15 08:48:47;;;;;;;78.75;49.90;;;;;;;;;;6247533;28;20230;-75
2023/01/15 08:51:51;;;;;;;79.10;50.03;;;;;;;;;;6244499;28;20061;-77
2023/01/15 08:54:53;;;;;;;77.18;47.47;;;;;;;;;;6249140;28;20057;-76
2023/01/15 08:57:55;;;;;;;75.35;50.10;;;;;;;;;;6245641;28;20053;-75
2023/01/15 09:00:57;;;;;;;80.45;51.65;;;;;;;;;;6242562;28;20053;-77
2023/01/15 09:03:58;;;;;;;78.63;50.58;;;;;;;;;;6204255;28;1184890;-77
2023/01/15 09:10:18;;;;;;;77.93;48.78;;;;;;;;;;6247429;28;20116;-77
2023/01/15 09:13:19;;;;;;;77.28;48.45;;;;;;;;;;6245608;28;20054;-75
2023/01/15 09:16:21;;;;;;;81.45;50.20;;;;;;;;;;6245330;28;20100;-75
2023/01/15 09:19:23;;;;;;;75.80;48.53;;;;;;;;;;6246428;28;20060;-71
2023/01/15 09:22:29;;;;;;;73.28;47.08;;;;;;;;;;6247339;28;20053;-72
2023/01/15 09:25:31;;;;;;;80.95;47.42;;;;;;;;;;6245512;28;20129;-75
2023/01/15 09:28:33;;;;;;;83.35;48.63;;;;;;;;;;6246871;28;20329;-75
2023/01/15 09:31:35;;;;;;;85.78;52.47;;;;;;;;;;6246339;28;20049;-76
2023/01/15 09:34:37;;;;;;;84.90;52.03;;;;;;;;;;6246874;28;20056;-69
2023/01/15 09:37:40;;;;;;;86.15;52.33;;;;;;;;;;6245270;28;20053;-70
2023/01/15 09:40:47;;;;;;;87.65;52.03;;;;;;;;;;6248571;28;20116;-76
2023/01/15 09:43:55;;;;;;;84.00;52.30;;;;;;;;;;6250256;28;20045;-75
2023/01/15 09:47:10;;;;;;;85.38;51.53;;;;;;;;;;6246443;28;20046;-75
2023/01/15 09:50:21;;;;;;;79.38;49.00;;;;;;;;;;6247371;28;20103;-73
2023/01/15 09:53:43;;;;;;;79.63;48.03;;;;;;;;;;6246034;28;20269;-76
2023/01/15 09:56:45;;;;;;;84.55;49.15;;;;;;;;;;6248520;28;20053;-76
2023/01/15 09:59:49;;;;;;;80.65;50.17;;;;;;;;;;6246872;28;20233;-76
2023/01/15 10:02:53;;;;;;;76.13;48.00;;;;;;;;;;6243841;28;20053;-75
2023/01/15 10:05:59;;;;;;;83.68;50.38;;;;;;;;;;6249257;28;20049;-75
2023/01/15 10:09:06;;;;;;;78.15;47.75;;;;;;;;;;6245544;28;20045;-72
2023/01/15 10:15:37;;;;;;;79.40;49.53;;;;;;;;;;6247446;28;20046;-74
2023/01/15 10:18:41;;;;;;;;;;;;;;;;;;6243941;28;20049;-71
2023/01/15 10:21:53;;;;;;;80.20;47.72;;;;;;;;;;6243626;28;19929;-75
2023/01/15 10:24:57;;;;;;;79.70;50.10;;;;;;;;;;6251450;28;20344;-74
2023/01/15 10:28:03;;;;;;;84.15;50.53;;;;;;;;;;6245175;28;20072;-76
2023/01/15 10:31:12;;;;;;;78.85;48.85;;;;;;;;;;6248475;28;20130;-74
2023/01/15 10:34:29;;;;;;;78.60;47.97;;;;;;;;;;6246107;28;20080;-75
2023/01/15 10:37:34;;;;;;;78.70;47.67;;;;;;;;;;6244956;28;20057;-75
2023/01/15 10:40:47;;;;;;;73.40;46.17;;;;;;;;;;6246646;28;20049;-76
2023/01/15 10:43:51;;;;;;;71.22;44.85;;;;;;;;;;6244638;28;20053;-74
2023/01/15 10:46:56;;;;;;;75.85;47.95;;;;;;;;;;6244564;28;20203;-77
2023/01/15 10:49:59;;;;;;;77.93;46.38;;;;;;;;;;6246422;28;20117;-76
2023/01/15 10:53:06;;;;;;;79.03;45.88;;;;;;;;;;6246093;28;20064;-77
2023/01/15 10:56:14;;;;;;;79.88;48.53;;;;;;;;;;6247346;28;20120;-76
2023/01/15 10:59:18;;;;;;;82.32;48.90;;;;;;;;;;6244572;28;20057;-77
2023/01/15 11:02:25;;;;;;;83.40;50.90;;;;;;;;;;6244740;28;20046;-77
2023/01/15 11:05:26;;;;;;;79.57;49.65;;;;;;;;;;6245693;28;20265;-75
2023/01/15 11:08:30;;;;;;;78.10;48.05;;;;;;;;;;6246146;28;20226;-76
2023/01/15 11:19:35;;;;;;;78.30;48.20;;;;;;;;;;6245477;28;20305;-76
2023/01/15 11:22:00;;;;;;;72.65;45.95;;;;;;;;;;6245393;28;20237;-77
2023/01/15 11:25:02;;;;;;;70.82;46.05;;;;;;;;;;6245036;28;20063;-72
2023/01/15 11:28:07;;;;;;;74.82;47.60;;;;;;;;;;6245251;28;20057;-77
2023/01/15 11:31:10;;;;;;;76.28;49.20;;;;;;;;;;6246673;28;20210;-76
2023/01/15 11:34:20;;;;;;;76.38;47.20;;;;;;;;;;6242198;28;20057;-76
2023/01/15 11:37:22;;;;;;;76.80;48.20;;;;;;;;;;6244990;28;20057;-75
2023/01/15 11:40:25;;;;;;;76.15;48.80;;;;;;;;;;6243391;28;20046;-77
2023/01/15 11:53:39;;;;;;;83.95;50.53;;;;;;;;;;6244496;28;19952;-78
2023/01/15 11:56:47;;;;;;;92.20;55.60;;;;;;;;;;6244421;28;20336;-77
2023/01/15 11:59:50;;;;;;;96.28;55.75;;;;;;;;;;6247360;28;21872;-73
2023/01/15 12:02:55;;;;;;;91.80;55.50;;;;;;;;;;6244726;28;20050;-75
2023/01/15 12:06:01;;;;;;;90.95;54.80;;;;;;;;;;6245207;28;20060;-78
2023/01/15 12:09:08;;;;;;;87.53;54.75;;;;;;;;;;6246098;28;20256;-78
2023/01/15 12:12:19;;;;;;;94.43;56.03;;;;;;;;;;6242632;28;22029;-74
2023/01/15 12:15:32;;;;;;;92.32;57.75;;;;;;;;;;6245755;28;20053;-76
2023/01/15 12:18:49;;;;;;;86.53;52.75;;;;;;;;;;6243017;28;20261;-70
2023/01/15 12:22:10;;;;;;;89.32;55.05;;;;;;;;;;6243124;28;20342;-77
2023/01/15 12:25:20;;;;;;;86.00;53.30;;;;;;;;;;6244615;28;20325;-78
2023/01/15 12:28:26;;;;;;;91.55;54.67;;;;;;;;;;6246373;28;20272;-75
2023/01/15 12:31:33;;;;;;;88.07;53.85;;;;;;;;;;6246981;28;20337;-73
2023/01/15 12:34:42;;;;;;;90.25;54.92;;;;;;;;;;6244770;28;20280;-77
2023/01/15 12:37:47;;;;;;;91.60;56.35;;;;;;;;;;6252588;28;20057;-74
2023/01/15 12:40:54;;;;;;;92.70;56.30;;;;;;;;;;6240763;28;20341;-72
2023/01/15 12:47:22;;;;;;;100.22;56.88;;;;;;;;;;6247303;28;20054;-79
2023/01/15 12:50:29;;;;;;;93.43;55.83;;;;;;;;;;6247887;28;20111;-77
2023/01/15 12:53:37;;;;;;;92.93;56.88;;;;;;;;;;6244356;28;20061;-76
2023/01/15 12:56:47;;;;;;;92.53;56.50;;;;;;;;;;6253164;28;20037;-75
2023/01/15 12:59:56;;;;;;;94.97;56.08;;;;;;;;;;6249561;28;20293;-77
2023/01/15 13:03:09;;;;;;;94.07;55.75;;;;;;;;;;6252055;28;20055;-73
2023/01/15 13:06:13;;;;;;;90.45;56.17;;;;;;;;;;6247438;28;20056;-77
2023/01/15 13:09:24;;;;;;;92.35;56.25;;;;;;;;;;6248963;28;20061;-74
2023/01/15 13:12:25;;;;;;;87.68;54.47;;;;;;;;;;6248536;28;20050;-79
2023/01/15 13:15:32;;;;;;;88.82;53.20;;;;;;;;;;6251095;28;20092;-70
2023/01/15 13:18:46;;;;;;;91.22;54.25;;;;;;;;;;6251339;28;20107;-77
2023/01/15 13:21:51;;;;;;;90.85;54.58;;;;;;;;;;6249362;28;20136;-76
2023/01/15 13:25:07;;;;;;;83.68;52.60;;;;;;;;;;6252414;28;20046;-78
2023/01/15 13:28:29;;;;;;;89.35;54.22;;;;;;;;;;6248807;28;20057;-76
2023/01/15 13:31:54;;;;;;;85.22;52.47;;;;;;;;;;6249857;28;20385;-77
2023/01/15 13:35:00;;;;;;;85.65;52.25;;;;;;;;;;6247761;28;20045;-79
2023/01/15 13:38:04;;;;;;;91.03;55.72;;;;;;;;;;6249000;28;20111;-80
2023/01/15 13:41:08;;;;;;;91.93;54.03;;;;;;;;;;6247268;28;20111;-80
2023/01/15 13:44:17;;;;;;;91.90;55.22;;;;;;;;;;6253107;28;20053;-79
2023/01/15 13:47:22;;;;;;;91.18;53.97;;;;;;;;;;6250523;28;20114;-80
2023/01/15 13:50:29;;;;;;;82.80;50.70;;;;;;;;;;6250707;28;20103;-79
2023/01/15 13:53:33;;;;;;;92.25;51.95;;;;;;;;;;6250078;28;20376;-80
2023/01/15 13:56:38;;;;;;;90.43;51.40;;;;;;;;;;6251502;28;20054;-80
2023/01/15 13:59:43;;;;;;;80.80;48.88;;;;;;;;;;6259311;28;20555;-80
2023/01/15 14:02:52;;;;;;;82.80;48.00;;;;;;;;;;6253362;28;20053;-82
2023/01/15 14:05:57;;;;;;;75.35;46.28;;;;;;;;;;6251313;28;20237;-74
2023/01/15 14:08:59;;;;;;;82.93;48.67;;;;;;;;;;6252303;28;20364;-73
2023/01/15 14:12:11;;;;;;;77.18;45.83;;;;;;;;;;6251618;28;20360;-78
2023/01/15 14:15:25;;;;;;;68.88;41.67;;;;;;;;;;6249399;28;20057;-81
2023/01/15 14:18:57;;;;;;;72.32;40.78;;;;;;;;;;6253386;28;20127;-75
2023/01/15 14:22:09;;;;;;;72.88;39.95;;;;;;;;;;6256896;28;20236;-77
2023/01/15 14:25:23;;;;;;;71.45;41.15;;;;;;;;;;6260609;28;20065;-75
2023/01/15 14:28:38;;;;;;;73.75;41.85;;;;;;;;;;6258119;28;20046;-83
2023/01/15 14:31:45;;;;;;;67.07;38.85;;;;;;;;;;6261568;28;20112;-83
2023/01/15 14:35:09;;;;;;;62.33;38.17;;;;;;;;;;6246729;28;20345;-83
2023/01/15 14:38:16;;;;;;;67.70;38.47;;;;;;;;;;6247850;28;20113;-80
2023/01/15 14:41:26;;;;;;;68.57;38.17;;;;;;;;;;6246869;28;20563;-81
2023/01/15 14:44:29;;;;;;;65.05;38.85;;;;;;;;;;6244015;28;20097;-77
2023/01/15 14:47:35;;;;;;;67.10;39.15;;;;;;;;;;6246402;28;20049;-81
2023/01/15 14:50:38;;;;;;;65.43;38.75;;;;;;;;;;6248422;28;20053;-80
2023/01/15 14:53:43;;;;;;;64.30;36.80;;;;;;;;;;6245048;28;20064;-70
2023/01/15 14:56:49;;;;;;;59.83;36.35;;;;;;;;;;6247154;28;20344;-81
2023/01/15 14:59:54;;;;;;;59.05;36.45;;;;;;;;;;6247713;28;20057;-81
2023/01/15 15:02:58;;;;;;;60.22;37.80;;;;;;;;;;6249975;28;20046;-82
2023/01/15 15:06:00;;;;;;;63.30;38.70;;;;;;;;;;6246450;28;20045;-76
2023/01/15 15:09:04;;;;;;;68.13;39.10;;;;;;;;;;6245950;28;20083;-72
2023/01/15 15:12:21;;;;;;;;;;;;;;;;;;6245693;28;20064;-78
2023/01/15 15:15:33;;;;;;;64.63;38.63;;;;;;;;;;6248422;28;19929;-75
2023/01/15 15:18:39;;;;;;;69.00;40.13;;;;;;;;;;6246634;28;20063;-70
2023/01/15 15:21:44;;;;;;;70.43;41.53;;;;;;;;;;6248665;28;20073;-69
2023/01/15 15:24:49;;;;;;;64.50;38.22;;;;;;;;;;6245010;28;20049;-78
2023/01/15 15:28:01;;;;;;;62.08;36.10;;;;;;;;;;6242154;28;20061;-76
2023/01/15 15:31:03;;;;;;;60.55;37.83;;;;;;;;;;6247453;28;20056;-74
2023/01/15 15:34:06;;;;;;;61.08;35.50;;;;;;;;;;6242933;28;20053;-78
2023/01/15 15:37:14;;;;;;;58.03;35.08;;;;;;;;;;6247810;28;20086;-78
2023/01/15 15:40:20;;;;;;;61.78;36.10;;;;;;;;;;6244943;28;20054;-79
2023/01/15 15:50:19;;;;;;;56.60;33.78;;;;;;;;;;6244544;28;20049;-80
2023/01/15 15:53:21;;;;;;;50.88;31.58;;;;;;;;;;6246871;28;20042;-79
2023/01/15 15:56:24;;;;;;;52.80;32.50;;;;;;;;;;6246135;28;20337;-77
2023/01/15 15:59:31;;;;;;;46.25;29.08;;;;;;;;;;6245721;28;20163;-78
2023/01/15 16:02:36;;;;;;;48.22;30.25;;;;;;;;;;6242558;28;20313;-79
2023/01/15 16:05:38;;;;;;;51.22;29.98;;;;;;;;;;6244604;28;20345;-77
2023/01/15 16:08:40;;;;;;;51.85;30.42;;;;;;;;;;6242737;28;20050;-76
2023/01/15 16:11:43;;;;;;;48.47;28.90;;;;;;;;;;6246203;28;20087;-74
2023/01/15 16:14:45;;;;;;;48.72;29.02;;;;;;;;;;6243783;28;20253;-81
2023/01/15 16:17:47;;;;;;;48.45;30.60;;;;;;;;;;6243328;28;20058;-80
2023/01/15 16:20:49;;;;;;;49.20;30.02;;;;;;;;;;6245767;28;20053;-78
2023/01/15 16:24:01;;;;;;;46.08;27.17;;;;;;;;;;6243278;28;20045;-78
2023/01/15 16:27:06;;;;;;;45.05;28.50;;;;;;;;;;6244191;28;20049;-76
2023/01/15 16:30:14;;;;;;;43.97;27.08;;;;;;;;;;6247872;28;20105;-79
2023/01/15 16:33:17;;;;;;;46.42;27.60;;;;;;;;;;6250098;28;20091;-79
2023/01/15 16:36:19;;;;;;;47.47;29.35;;;;;;;;;;6249301;28;20052;-75
2023/01/15 16:39:24;;;;;;;45.00;29.05;;;;;;;;;;6250700;28;20337;-79
2023/01/15 16:42:31;;;;;;;48.72;29.23;;;;;;;;;;6249002;28;20045;-78
2023/01/15 16:45:33;;;;;;;46.85;29.70;;;;;;;;;;6248163;28;20123;-78
2023/01/15 16:48:37;;;;;;;53.28;29.40;;;;;;;;;;6251771;28;20064;-80
2023/01/15 16:51:41;;;;;;;54.10;31.00;;;;;;;;;;6249670;28;20288;-80
2023/01/15 16:54:45;;;;;;;51.90;31.02;;;;;;;;;;6253570;28;20240;-77
2023/01/15 16:57:48;;;;;;;52.72;31.63;;;;;;;;;;6253777;28;20054;-73
2023/01/15 17:00:54;;;;;;;53.75;31.85;;;;;;;;;;6255532;28;20045;-70
2023/01/15 17:03:57;;;;;;;54.08;31.15;;;;;;;;;;6253160;28;20069;-79
2023/01/15 17:07:00;;;;;;;54.83;33.03;;;;;;;;;;6252099;28;20096;-80
2023/01/15 17:10:04;;;;;;;60.67;34.30;;;;;;;;;;6248345;28;20075;-78
2023/01/15 17:13:17;;;;;;;62.37;35.57;;;;;;;;;;6247530;28;20050;-76
2023/01/15 17:16:20;;;;;;;55.63;33.25;;;;;;;;;;6248468;28;20087;-76
2023/01/15 17:19:21;;;;;;;55.90;32.22;;;;;;;;;;6246471;28;20049;-78
2023/01/15 17:22:26;;;;;;;53.08;32.40;;;;;;;;;;6247626;28;20053;-76
2023/01/15 17:25:32;;;;;;;50.75;31.02;;;;;;;;;;6247136;28;20119;-74
2023/01/15 17:28:35;;;;;;;52.35;32.83;;;;;;;;;;6247863;28;20092;-77
2023/01/15 17:31:39;;;;;;;51.15;30.67;;;;;;;;;;6248030;28;20054;-76
2023/01/15 17:34:41;;;;;;;53.72;30.70;;;;;;;;;;6247234;28;21861;-74
2023/01/15 17:37:42;;;;;;;50.78;30.08;;;;;;;;;;6245923;28;20352;-74
2023/01/15 17:40:44;;;;;;;46.72;29.05;;;;;;;;;;6246220;28;20091;-80
2023/01/15 17:43:48;;;;;;;42.25;27.42;;;;;;;;;;6247006;28;20564;-77
2023/01/15 17:46:50;;;;;;;47.53;29.55;;;;;;;;;;6246771;28;20340;-78
2023/01/15 17:49:51;;;;;;;42.20;26.75;;;;;;;;;;6248282;28;20064;-76
2023/01/15 17:52:53;;;;;;;40.53;25.13;;;;;;;;;;6247705;28;20053;-77
2023/01/15 18:05:55;;;;;;;38.22;23.02;;;;;;;;;;6248782;28;20073;-78
2023/01/15 18:08:59;;;;;;;41.65;24.33;;;;;;;;;;6243120;28;20054;-78
2023/01/15 18:12:00;;;;;;;38.80;24.08;;;;;;;;;;6244706;28;20407;-73
2023/01/15 18:15:04;;;;;;;36.72;22.27;;;;;;;;;;6243897;28;20298;-75
2023/01/15 18:18:06;;;;;;;34.40;21.20;;;;;;;;;;6244540;28;20387;-67
2023/01/15 18:21:07;;;;;;;34.72;22.40;;;;;;;;;;6247649;28;20115;-75
2023/01/15 18:24:10;;;;;;;35.20;21.45;;;;;;;;;;6245168;28;20091;-79
2023/01/15 18:27:12;;;;;;;34.40;20.40;;;;;;;;;;6244855;28;20056;-75
2023/01/15 18:30:17;;;;;;;33.72;18.98;;;;;;;;;;6244397;28;20200;-74
2023/01/15 18:48:19;;;;;;;52.90;32.10;;;;;;;;;;6307397;22;20582;-78
2023/01/15 18:51:24;;;;;;;48.08;31.05;;;;;;;;;;6263372;28;20056;-72
2023/01/15 18:54:25;;;;;;;56.70;33.22;;;;;;;;;;6276767;28;20057;-75
2023/01/15 18:57:27;;;;;;;60.90;36.70;;;;;;;;;;6260197;28;20147;-78
2023/01/15 19:00:29;;;;;;;69.05;40.05;;;;;;;;;;6265457;28;20045;-82
2023/01/15 19:03:32;;;;;;;69.80;41.25;;;;;;;;;;6282703;28;20060;-74
2023/01/15 19:06:35;;;;;;;73.93;42.03;;;;;;;;;;6271644;28;20045;-79
2023/01/15 19:09:37;;;;;;;76.07;42.42;;;;;;;;;;6262953;28;20056;-79
2023/01/15 19:12:39;;;;;;;72.32;41.63;;;;;;;;;;6258487;28;20147;-78
2023/01/15 19:19:02;;;;;;;95.90;53.35;;;;;;;;;;6278660;28;20049;-80
2023/01/15 19:25:24;;;;;;;103.93;57.90;;;;;;;;;;6283388;28;20053;-76
2023/01/15 19:28:26;;;;;;;110.80;61.92;;;;;;;;;;6284225;28;20079;-77